sensor_id;sensor_type;location;lat;lon;timestamp;temperature;humidity
24402;DHT22;12539;48.808;11.292;2023-03-23T00:01:13;9.80;99.90
24402;DHT22;12539;48.808;11.292;2023-03-23T00:03:40;9.80;99.90
24402;DHT22;12539;48.808;11.292;2023-03-23T00:06:08;9.90;99.90
24402;DHT22;12539;48.808;11.292;2023-03-23T00:08:35;9.90;99.90
24402;DHT22;12539;48.808;11.292;2023-03-23T00:11:17;10.00;99.90
24402;DHT22;12539;48.808;11.292;2023-03-23T00:13:44;10.00;99.90
24402;DHT22;12539;48.808;11.292;2023-03-23T00:16:11;10.10;99.90
24402;DHT22;12539;48.808;11.292;2023-03-23T00:18:49;10.00;99.90
24402;DHT22;12539;48.808;11.292;2023-03-23T00:21:22;10.00;99.90
24402;DHT22;12539;48.808;11.292;2023-03-23T00:23:59;10.00;99.90
24402;DHT22;12539;48.808;11.292;2023-03-23T00:26:25;10.10;99.90
24402;DHT22;12539;48.808;11.292;2023-03-23T00:28:55;10.10;99.90
24402;DHT22;12539;48.808;11.292;2023-03-23T00:31:20;10.10;99.90
24402;DHT22;12539;48.808;11.292;2023-03-23T00:33:46;10.10;99.90
24402;DHT22;12539;48.808;11.292;2023-03-23T00:36:12;10.10;99.90
24402;DHT22;12539;48.808;11.292;2023-03-23T00:38:38;10.10;99.90
24402;DHT22;12539;48.808;11.292;2023-03-23T00:41:03;10.10;99.90
24402;DHT22;12539;48.808;11.292;2023-03-23T00:43:30;10.10;99.90
24402;DHT22;12539;48.808;11.292;2023-03-23T00:45:56;10.00;99.90
24402;DHT22;12539;48.808;11.292;2023-03-23T00:48:23;9.90;99.90
24402;DHT22;12539;48.808;11.292;2023-03-23T00:50:49;9.90;99.90
24402;DHT22;12539;48.808;11.292;2023-03-23T00:53:18;9.90;99.90
24402;DHT22;12539;48.808;11.292;2023-03-23T00:55:47;9.90;99.90
24402;DHT22;12539;48.808;11.292;2023-03-23T00:58:13;9.90;99.90
24402;DHT22;12539;48.808;11.292;2023-03-23T01:00:38;10.00;99.90
24402;DHT22;12539;48.808;11.292;2023-03-23T01:03:04;10.00;99.90
24402;DHT22;12539;48.808;11.292;2023-03-23T01:05:34;9.90;99.90
24402;DHT22;12539;48.808;11.292;2023-03-23T01:07:59;9.90;99.90
24402;DHT22;12539;48.808;11.292;2023-03-23T01:10:25;9.90;99.90
24402;DHT22;12539;48.808;11.292;2023-03-23T01:12:51;9.90;99.90
24402;DHT22;12539;48.808;11.292;2023-03-23T01:15:18;9.90;99.90
24402;DHT22;12539;48.808;11.292;2023-03-23T01:17:43;9.90;99.90
24402;DHT22;12539;48.808;11.292;2023-03-23T01:20:10;9.90;99.90
24402;DHT22;12539;48.808;11.292;2023-03-23T01:22:36;10.00;99.90
24402;DHT22;12539;48.808;11.292;2023-03-23T01:25:06;10.00;99.90
24402;DHT22;12539;48.808;11.292;2023-03-23T01:27:31;10.10;99.90
24402;DHT22;12539;48.808;11.292;2023-03-23T01:29:57;10.10;99.90
24402;DHT22;12539;48.808;11.292;2023-03-23T01:32:23;10.10;99.90
24402;DHT22;12539;48.808;11.292;2023-03-23T01:34:48;10.00;99.90
24402;DHT22;12539;48.808;11.292;2023-03-23T01:37:14;10.00;99.90
24402;DHT22;12539;48.808;11.292;2023-03-23T01:39:41;10.00;99.90
24402;DHT22;12539;48.808;11.292;2023-03-23T01:42:08;10.00;99.90
24402;DHT22;12539;48.808;11.292;2023-03-23T01:46:59;10.00;99.90
24402;DHT22;12539;48.808;11.292;2023-03-23T01:49:26;10.10;99.90
24402;DHT22;12539;48.808;11.292;2023-03-23T01:51:53;10.10;99.90
24402;DHT22;12539;48.808;11.292;2023-03-23T01:54:21;10.10;99.90
24402;DHT22;12539;48.808;11.292;2023-03-23T01:56:50;10.10;99.90
24402;DHT22;12539;48.808;11.292;2023-03-23T01:59:16;10.10;99.90
24402;DHT22;12539;48.808;11.292;2023-03-23T02:01:42;10.20;99.90
24402;DHT22;12539;48.808;11.292;2023-03-23T02:04:11;10.20;99.90
24402;DHT22;12539;48.808;11.292;2023-03-23T02:06:37;10.30;99.90
24402;DHT22;12539;48.808;11.292;2023-03-23T02:09:03;10.30;99.90
24402;DHT22;12539;48.808;11.292;2023-03-23T02:11:31;10.30;99.90
24402;DHT22;12539;48.808;11.292;2023-03-23T02:13:57;10.40;99.90
24402;DHT22;12539;48.808;11.292;2023-03-23T02:16:34;10.40;99.90
24402;DHT22;12539;48.808;11.292;2023-03-23T02:26:58;10.40;99.90
24402;DHT22;12539;48.808;11.292;2023-03-23T02:30:04;10.50;99.90
24402;DHT22;12539;48.808;11.292;2023-03-23T02:34:53;10.40;99.90
24402;DHT22;12539;48.808;11.292;2023-03-23T02:37:21;10.50;99.90
24402;DHT22;12539;48.808;11.292;2023-03-23T02:39:51;10.50;99.90
24402;DHT22;12539;48.808;11.292;2023-03-23T02:42:18;10.50;99.90
24402;DHT22;12539;48.808;11.292;2023-03-23T02:44:45;10.50;99.90
24402;DHT22;12539;48.808;11.292;2023-03-23T02:47:14;10.60;99.90
24402;DHT22;12539;48.808;11.292;2023-03-23T02:49:41;10.60;99.90
24402;DHT22;12539;48.808;11.292;2023-03-23T02:52:09;10.60;99.90
24402;DHT22;12539;48.808;11.292;2023-03-23T02:54:37;10.70;99.90
24402;DHT22;12539;48.808;11.292;2023-03-23T02:57:04;10.60;99.90
24402;DHT22;12539;48.808;11.292;2023-03-23T02:59:30;10.70;99.90
24402;DHT22;12539;48.808;11.292;2023-03-23T03:04:23;10.70;99.90
24402;DHT22;12539;48.808;11.292;2023-03-23T03:11:57;10.60;99.90
24402;DHT22;12539;48.808;11.292;2023-03-23T03:14:26;10.70;99.90
24402;DHT22;12539;48.808;11.292;2023-03-23T03:17:00;10.70;99.90
24402;DHT22;12539;48.808;11.292;2023-03-23T03:19:29;10.70;99.90
24402;DHT22;12539;48.808;11.292;2023-03-23T03:21:56;10.70;99.90
24402;DHT22;12539;48.808;11.292;2023-03-23T03:24:23;10.70;99.90
24402;DHT22;12539;48.808;11.292;2023-03-23T03:26:50;10.70;99.90
24402;DHT22;12539;48.808;11.292;2023-03-23T03:29:26;10.70;99.90
24402;DHT22;12539;48.808;11.292;2023-03-23T03:31:55;10.70;99.90
24402;DHT22;12539;48.808;11.292;2023-03-23T03:34:21;10.70;99.90
24402;DHT22;12539;48.808;11.292;2023-03-23T03:36:47;10.70;99.90
24402;DHT22;12539;48.808;11.292;2023-03-23T03:39:14;10.70;99.90
24402;DHT22;12539;48.808;11.292;2023-03-23T03:41:42;10.70;99.90
24402;DHT22;12539;48.808;11.292;2023-03-23T03:44:08;10.70;99.90
24402;DHT22;12539;48.808;11.292;2023-03-23T03:46:34;10.70;99.90
24402;DHT22;12539;48.808;11.292;2023-03-23T03:49:00;10.70;99.90
24402;DHT22;12539;48.808;11.292;2023-03-23T03:51:27;10.70;99.90
24402;DHT22;12539;48.808;11.292;2023-03-23T03:53:53;10.70;99.90
24402;DHT22;12539;48.808;11.292;2023-03-23T03:56:18;10.70;99.90
24402;DHT22;12539;48.808;11.292;2023-03-23T03:58:45;10.80;99.90
24402;DHT22;12539;48.808;11.292;2023-03-23T04:01:13;10.80;99.90
24402;DHT22;12539;48.808;11.292;2023-03-23T04:03:40;10.70;99.90
24402;DHT22;12539;48.808;11.292;2023-03-23T04:06:06;10.70;99.90
24402;DHT22;12539;48.808;11.292;2023-03-23T04:08:33;10.80;99.90
24402;DHT22;12539;48.808;11.292;2023-03-23T04:10:59;10.80;99.90
24402;DHT22;12539;48.808;11.292;2023-03-23T04:13:25;10.80;99.90
24402;DHT22;12539;48.808;11.292;2023-03-23T04:15:51;10.80;99.90
24402;DHT22;12539;48.808;11.292;2023-03-23T04:18:16;10.80;99.90
24402;DHT22;12539;48.808;11.292;2023-03-23T04:20:45;10.70;99.90
24402;DHT22;12539;48.808;11.292;2023-03-23T04:23:21;10.70;99.90
24402;DHT22;12539;48.808;11.292;2023-03-23T04:25:48;10.80;99.90
24402;DHT22;12539;48.808;11.292;2023-03-23T04:28:15;10.80;99.90
24402;DHT22;12539;48.808;11.292;2023-03-23T04:30:42;10.80;99.90
24402;DHT22;12539;48.808;11.292;2023-03-23T04:33:08;10.80;99.90
24402;DHT22;12539;48.808;11.292;2023-03-23T04:35:40;10.80;99.90
24402;DHT22;12539;48.808;11.292;2023-03-23T04:38:05;10.80;99.90
24402;DHT22;12539;48.808;11.292;2023-03-23T04:40:31;10.80;99.90
24402;DHT22;12539;48.808;11.292;2023-03-23T04:42:56;10.80;99.90
24402;DHT22;12539;48.808;11.292;2023-03-23T04:45:22;10.80;99.90
24402;DHT22;12539;48.808;11.292;2023-03-23T04:47:48;10.80;99.90
24402;DHT22;12539;48.808;11.292;2023-03-23T04:50:19;10.80;99.90
24402;DHT22;12539;48.808;11.292;2023-03-23T04:52:45;10.70;99.90
24402;DHT22;12539;48.808;11.292;2023-03-23T04:55:11;10.70;99.90
24402;DHT22;12539;48.808;11.292;2023-03-23T04:57:37;10.70;99.90
24402;DHT22;12539;48.808;11.292;2023-03-23T05:00:03;10.70;99.90
24402;DHT22;12539;48.808;11.292;2023-03-23T05:02:36;10.70;99.90
24402;DHT22;12539;48.808;11.292;2023-03-23T05:05:02;10.70;99.90
24402;DHT22;12539;48.808;11.292;2023-03-23T05:07:27;10.80;99.90
24402;DHT22;12539;48.808;11.292;2023-03-23T05:09:53;10.70;99.90
24402;DHT22;12539;48.808;11.292;2023-03-23T05:12:18;10.70;99.90
24402;DHT22;12539;48.808;11.292;2023-03-23T05:14:44;10.70;99.90
24402;DHT22;12539;48.808;11.292;2023-03-23T05:17:09;10.70;99.90
24402;DHT22;12539;48.808;11.292;2023-03-23T05:19:35;10.70;99.90
24402;DHT22;12539;48.808;11.292;2023-03-23T05:22:01;10.80;99.90
24402;DHT22;12539;48.808;11.292;2023-03-23T05:24:31;10.70;99.90
24402;DHT22;12539;48.808;11.292;2023-03-23T05:26:58;10.80;99.90
24402;DHT22;12539;48.808;11.292;2023-03-23T05:29:26;10.80;99.90
24402;DHT22;12539;48.808;11.292;2023-03-23T05:31:52;10.80;99.90
24402;DHT22;12539;48.808;11.292;2023-03-23T05:34:18;10.80;99.90
24402;DHT22;12539;48.808;11.292;2023-03-23T05:36:44;10.80;99.90
24402;DHT22;12539;48.808;11.292;2023-03-23T05:39:12;10.80;99.90
24402;DHT22;12539;48.808;11.292;2023-03-23T05:41:39;10.80;99.90
24402;DHT22;12539;48.808;11.292;2023-03-23T05:44:05;10.80;99.90
24402;DHT22;12539;48.808;11.292;2023-03-23T05:46:31;10.90;99.90
24402;DHT22;12539;48.808;11.292;2023-03-23T05:48:57;10.90;99.90
24402;DHT22;12539;48.808;11.292;2023-03-23T05:51:23;10.90;99.90
24402;DHT22;12539;48.808;11.292;2023-03-23T05:53:49;10.80;99.90
24402;DHT22;12539;48.808;11.292;2023-03-23T05:56:14;10.80;99.90
24402;DHT22;12539;48.808;11.292;2023-03-23T05:58:40;10.80;99.90
24402;DHT22;12539;48.808;11.292;2023-03-23T06:01:06;10.90;99.90
24402;DHT22;12539;48.808;11.292;2023-03-23T06:03:32;10.90;99.90
24402;DHT22;12539;48.808;11.292;2023-03-23T06:05:57;11.00;99.90
24402;DHT22;12539;48.808;11.292;2023-03-23T06:08:26;11.00;99.90
24402;DHT22;12539;48.808;11.292;2023-03-23T06:10:51;11.10;99.90
24402;DHT22;12539;48.808;11.292;2023-03-23T06:13:17;11.20;99.90
24402;DHT22;12539;48.808;11.292;2023-03-23T06:15:42;11.30;99.90
24402;DHT22;12539;48.808;11.292;2023-03-23T06:18:08;11.40;99.90
24402;DHT22;12539;48.808;11.292;2023-03-23T06:20:34;11.40;99.90
24402;DHT22;12539;48.808;11.292;2023-03-23T06:23:00;11.40;99.90
24402;DHT22;12539;48.808;11.292;2023-03-23T06:25:26;11.50;99.90
24402;DHT22;12539;48.808;11.292;2023-03-23T06:27:52;11.50;99.90
24402;DHT22;12539;48.808;11.292;2023-03-23T06:30:18;11.60;99.90
24402;DHT22;12539;48.808;11.292;2023-03-23T06:32:43;11.60;99.90
24402;DHT22;12539;48.808;11.292;2023-03-23T06:35:12;11.70;99.90
24402;DHT22;12539;48.808;11.292;2023-03-23T06:37:38;11.80;99.90
24402;DHT22;12539;48.808;11.292;2023-03-23T06:40:04;11.80;99.90
24402;DHT22;12539;48.808;11.292;2023-03-23T06:42:31;11.90;99.90
24402;DHT22;12539;48.808;11.292;2023-03-23T06:44:57;11.90;99.90
24402;DHT22;12539;48.808;11.292;2023-03-23T06:47:23;11.90;99.90
24402;DHT22;12539;48.808;11.292;2023-03-23T06:49:49;11.90;99.90
24402;DHT22;12539;48.808;11.292;2023-03-23T06:52:15;11.90;99.90
24402;DHT22;12539;48.808;11.292;2023-03-23T06:54:41;11.90;99.90
24402;DHT22;12539;48.808;11.292;2023-03-23T06:57:07;11.90;99.90
24402;DHT22;12539;48.808;11.292;2023-03-23T06:59:32;12.00;99.90
24402;DHT22;12539;48.808;11.292;2023-03-23T07:01:58;12.00;99.90
24402;DHT22;12539;48.808;11.292;2023-03-23T07:04:23;12.10;99.90
24402;DHT22;12539;48.808;11.292;2023-03-23T07:06:49;12.20;99.90
24402;DHT22;12539;48.808;11.292;2023-03-23T07:09:15;12.20;99.90
24402;DHT22;12539;48.808;11.292;2023-03-23T07:11:40;12.40;99.90
24402;DHT22;12539;48.808;11.292;2023-03-23T07:14:06;12.50;99.90
24402;DHT22;12539;48.808;11.292;2023-03-23T07:16:32;12.70;99.90
24402;DHT22;12539;48.808;11.292;2023-03-23T07:18:58;12.80;99.90
24402;DHT22;12539;48.808;11.292;2023-03-23T07:21:23;12.90;99.90
24402;DHT22;12539;48.808;11.292;2023-03-23T07:23:49;12.90;99.90
24402;DHT22;12539;48.808;11.292;2023-03-23T07:26:14;13.00;99.90
24402;DHT22;12539;48.808;11.292;2023-03-23T07:28:40;13.00;99.90
24402;DHT22;12539;48.808;11.292;2023-03-23T07:31:05;13.00;99.90
24402;DHT22;12539;48.808;11.292;2023-03-23T07:33:34;13.10;99.90
24402;DHT22;12539;48.808;11.292;2023-03-23T07:36:01;13.20;99.90
24402;DHT22;12539;48.808;11.292;2023-03-23T07:38:27;13.20;99.90
24402;DHT22;12539;48.808;11.292;2023-03-23T07:40:53;13.30;99.90
24402;DHT22;12539;48.808;11.292;2023-03-23T07:43:18;13.40;99.90
24402;DHT22;12539;48.808;11.292;2023-03-23T07:45:45;13.50;99.90
24402;DHT22;12539;48.808;11.292;2023-03-23T07:48:11;13.60;99.90
24402;DHT22;12539;48.808;11.292;2023-03-23T07:50:36;13.70;99.90
24402;DHT22;12539;48.808;11.292;2023-03-23T07:53:02;13.70;99.90
24402;DHT22;12539;48.808;11.292;2023-03-23T07:55:28;13.90;99.90
24402;DHT22;12539;48.808;11.292;2023-03-23T07:57:54;14.00;99.90
24402;DHT22;12539;48.808;11.292;2023-03-23T08:00:20;14.10;99.90
24402;DHT22;12539;48.808;11.292;2023-03-23T08:02:48;14.20;99.90
24402;DHT22;12539;48.808;11.292;2023-03-23T08:05:14;14.30;99.90
24402;DHT22;12539;48.808;11.292;2023-03-23T08:07:41;14.30;99.90
24402;DHT22;12539;48.808;11.292;2023-03-23T08:10:07;14.40;99.90
24402;DHT22;12539;48.808;11.292;2023-03-23T08:12:37;14.50;99.90
24402;DHT22;12539;48.808;11.292;2023-03-23T08:15:03;14.60;99.90
24402;DHT22;12539;48.808;11.292;2023-03-23T08:17:29;14.70;99.90
24402;DHT22;12539;48.808;11.292;2023-03-23T08:19:54;14.80;99.90
24402;DHT22;12539;48.808;11.292;2023-03-23T08:22:20;14.90;99.90
24402;DHT22;12539;48.808;11.292;2023-03-23T08:24:46;15.00;99.90
24402;DHT22;12539;48.808;11.292;2023-03-23T08:27:12;15.00;99.90
24402;DHT22;12539;48.808;11.292;2023-03-23T08:29:37;15.10;99.90
24402;DHT22;12539;48.808;11.292;2023-03-23T08:32:04;15.30;99.90
24402;DHT22;12539;48.808;11.292;2023-03-23T08:34:29;15.30;99.90
24402;DHT22;12539;48.808;11.292;2023-03-23T08:36:56;15.50;99.90
24402;DHT22;12539;48.808;11.292;2023-03-23T08:39:22;15.80;99.90
24402;DHT22;12539;48.808;11.292;2023-03-23T08:41:48;16.10;99.90
24402;DHT22;12539;48.808;11.292;2023-03-23T08:44:14;16.30;99.90
24402;DHT22;12539;48.808;11.292;2023-03-23T08:46:40;16.60;99.90
24402;DHT22;12539;48.808;11.292;2023-03-23T08:49:06;16.80;99.90
24402;DHT22;12539;48.808;11.292;2023-03-23T08:51:32;16.80;97.30
24402;DHT22;12539;48.808;11.292;2023-03-23T08:53:58;16.80;97.80
24402;DHT22;12539;48.808;11.292;2023-03-23T08:56:24;16.80;97.30
24402;DHT22;12539;48.808;11.292;2023-03-23T08:58:50;16.90;97.80
24402;DHT22;12539;48.808;11.292;2023-03-23T09:01:15;17.00;96.40
24402;DHT22;12539;48.808;11.292;2023-03-23T09:03:41;17.20;95.20
24402;DHT22;12539;48.808;11.292;2023-03-23T09:06:07;17.30;93.80
24402;DHT22;12539;48.808;11.292;2023-03-23T09:08:33;17.30;91.10
24402;DHT22;12539;48.808;11.292;2023-03-23T09:11:01;17.20;91.50
24402;DHT22;12539;48.808;11.292;2023-03-23T09:13:27;17.20;92.30
24402;DHT22;12539;48.808;11.292;2023-03-23T09:15:53;17.20;91.60
24402;DHT22;12539;48.808;11.292;2023-03-23T09:18:18;17.30;91.60
24402;DHT22;12539;48.808;11.292;2023-03-23T09:20:44;17.40;90.00
24402;DHT22;12539;48.808;11.292;2023-03-23T09:23:10;17.50;91.00
24402;DHT22;12539;48.808;11.292;2023-03-23T09:25:38;17.70;90.30
24402;DHT22;12539;48.808;11.292;2023-03-23T09:28:04;17.80;89.70
24402;DHT22;12539;48.808;11.292;2023-03-23T09:30:30;17.90;86.30
24402;DHT22;12539;48.808;11.292;2023-03-23T09:32:56;18.00;83.20
24402;DHT22;12539;48.808;11.292;2023-03-23T09:35:23;18.10;82.50
24402;DHT22;12539;48.808;11.292;2023-03-23T09:37:50;18.00;83.10
24402;DHT22;12539;48.808;11.292;2023-03-23T09:40:17;18.00;79.60
24402;DHT22;12539;48.808;11.292;2023-03-23T09:45:23;17.90;78.90
24402;DHT22;12539;48.808;11.292;2023-03-23T09:50:23;17.80;78.50
24402;DHT22;12539;48.808;11.292;2023-03-23T09:55:18;17.70;74.20
24402;DHT22;12539;48.808;11.292;2023-03-23T09:57:59;17.70;73.70
24402;DHT22;12539;48.808;11.292;2023-03-23T10:00:37;17.70;73.50
24402;DHT22;12539;48.808;11.292;2023-03-23T10:03:05;17.70;73.20
24402;DHT22;12539;48.808;11.292;2023-03-23T10:05:38;17.70;72.90
24402;DHT22;12539;48.808;11.292;2023-03-23T10:08:08;17.70;73.50
24402;DHT22;12539;48.808;11.292;2023-03-23T10:13:27;17.80;74.90
24402;DHT22;12539;48.808;11.292;2023-03-23T10:15:56;17.90;74.60
24402;DHT22;12539;48.808;11.292;2023-03-23T10:18:31;18.00;75.00
24402;DHT22;12539;48.808;11.292;2023-03-23T10:20:58;18.00;73.50
24402;DHT22;12539;48.808;11.292;2023-03-23T10:26:21;18.20;72.80
24402;DHT22;12539;48.808;11.292;2023-03-23T10:28:50;18.30;71.70
24402;DHT22;12539;48.808;11.292;2023-03-23T10:31:23;18.40;73.10
24402;DHT22;12539;48.808;11.292;2023-03-23T10:33:53;18.50;73.80
24402;DHT22;12539;48.808;11.292;2023-03-23T10:38:49;18.70;72.60
24402;DHT22;12539;48.808;11.292;2023-03-23T10:41:18;18.70;72.60
24402;DHT22;12539;48.808;11.292;2023-03-23T10:43:44;18.80;70.60
24402;DHT22;12539;48.808;11.292;2023-03-23T10:48:56;18.90;70.40
24402;DHT22;12539;48.808;11.292;2023-03-23T10:51:27;19.00;70.90
24402;DHT22;12539;48.808;11.292;2023-03-23T10:53:56;19.10;70.90
24402;DHT22;12539;48.808;11.292;2023-03-23T10:56:27;19.20;70.60
24402;DHT22;12539;48.808;11.292;2023-03-23T10:58:53;19.30;68.80
24402;DHT22;12539;48.808;11.292;2023-03-23T11:01:29;19.30;69.10
24402;DHT22;12539;48.808;11.292;2023-03-23T11:03:55;19.20;69.70
24402;DHT22;12539;48.808;11.292;2023-03-23T11:06:26;19.20;69.80
24402;DHT22;12539;48.808;11.292;2023-03-23T11:09:00;19.10;68.70
24402;DHT22;12539;48.808;11.292;2023-03-23T11:11:27;19.10;66.30
24402;DHT22;12539;48.808;11.292;2023-03-23T11:14:01;19.10;66.20
24402;DHT22;12539;48.808;11.292;2023-03-23T11:16:28;19.10;66.50
24402;DHT22;12539;48.808;11.292;2023-03-23T11:18:54;19.20;67.10
24402;DHT22;12539;48.808;11.292;2023-03-23T11:21:21;19.40;67.00
24402;DHT22;12539;48.808;11.292;2023-03-23T11:23:48;19.50;68.00
24402;DHT22;12539;48.808;11.292;2023-03-23T11:26:15;19.50;65.50
24402;DHT22;12539;48.808;11.292;2023-03-23T11:28:51;19.60;64.70
24402;DHT22;12539;48.808;11.292;2023-03-23T11:31:17;19.60;64.20
24402;DHT22;12539;48.808;11.292;2023-03-23T11:33:52;19.60;63.00
24402;DHT22;12539;48.808;11.292;2023-03-23T11:36:19;19.60;64.60
24402;DHT22;12539;48.808;11.292;2023-03-23T11:38:45;19.70;64.20
24402;DHT22;12539;48.808;11.292;2023-03-23T11:41:11;19.70;63.90
24402;DHT22;12539;48.808;11.292;2023-03-23T11:43:43;19.80;65.10
24402;DHT22;12539;48.808;11.292;2023-03-23T11:48:52;19.90;63.80
24402;DHT22;12539;48.808;11.292;2023-03-23T11:56:21;19.90;62.10
24402;DHT22;12539;48.808;11.292;2023-03-23T11:58:48;19.80;62.60
24402;DHT22;12539;48.808;11.292;2023-03-23T12:06:47;19.60;63.60
24402;DHT22;12539;48.808;11.292;2023-03-23T12:12:18;19.40;63.90
24402;DHT22;12539;48.808;11.292;2023-03-23T12:14:56;19.30;63.40
24402;DHT22;12539;48.808;11.292;2023-03-23T12:20:03;19.00;65.20
24402;DHT22;12539;48.808;11.292;2023-03-23T12:22:57;18.90;65.20
24402;DHT22;12539;48.808;11.292;2023-03-23T12:30:41;19.00;66.20
24402;DHT22;12539;48.808;11.292;2023-03-23T12:48:33;19.60;66.60
24402;DHT22;12539;48.808;11.292;2023-03-23T12:51:08;19.80;66.00
24402;DHT22;12539;48.808;11.292;2023-03-23T12:56:23;20.20;64.90
24402;DHT22;12539;48.808;11.292;2023-03-23T12:59:01;20.20;62.90
24402;DHT22;12539;48.808;11.292;2023-03-23T13:01:30;20.30;63.20
24402;DHT22;12539;48.808;11.292;2023-03-23T13:06:37;20.40;61.80
24402;DHT22;12539;48.808;11.292;2023-03-23T13:11:38;20.40;61.60
24402;DHT22;12539;48.808;11.292;2023-03-23T13:14:29;20.40;62.40
24402;DHT22;12539;48.808;11.292;2023-03-23T13:24:54;20.50;62.30
24402;DHT22;12539;48.808;11.292;2023-03-23T13:27:24;20.60;62.00
24402;DHT22;12539;48.808;11.292;2023-03-23T13:29:55;20.60;60.60
24402;DHT22;12539;48.808;11.292;2023-03-23T13:32:21;20.60;60.60
24402;DHT22;12539;48.808;11.292;2023-03-23T13:34:48;20.60;60.70
24402;DHT22;12539;48.808;11.292;2023-03-23T13:37:21;20.60;60.40
24402;DHT22;12539;48.808;11.292;2023-03-23T13:39:55;20.60;59.70
24402;DHT22;12539;48.808;11.292;2023-03-23T13:42:23;20.50;59.10
24402;DHT22;12539;48.808;11.292;2023-03-23T13:49:52;20.40;59.70
24402;DHT22;12539;48.808;11.292;2023-03-23T14:02:50;20.30;59.70
24402;DHT22;12539;48.808;11.292;2023-03-23T14:13:01;19.70;60.30
24402;DHT22;12539;48.808;11.292;2023-03-23T14:15:28;19.50;60.80
24402;DHT22;12539;48.808;11.292;2023-03-23T14:17:54;19.40;61.30
24402;DHT22;12539;48.808;11.292;2023-03-23T14:20:30;19.30;61.40
24402;DHT22;12539;48.808;11.292;2023-03-23T14:22:58;19.20;61.10
24402;DHT22;12539;48.808;11.292;2023-03-23T14:25:26;19.10;61.20
24402;DHT22;12539;48.808;11.292;2023-03-23T14:27:52;19.10;62.20
24402;DHT22;12539;48.808;11.292;2023-03-23T14:30:19;19.00;60.70
24402;DHT22;12539;48.808;11.292;2023-03-23T14:32:45;18.90;60.30
24402;DHT22;12539;48.808;11.292;2023-03-23T14:35:17;18.80;61.20
24402;DHT22;12539;48.808;11.292;2023-03-23T14:37:45;18.70;61.20
24402;DHT22;12539;48.808;11.292;2023-03-23T14:40:12;18.70;61.80
24402;DHT22;12539;48.808;11.292;2023-03-23T14:42:39;18.60;62.60
24402;DHT22;12539;48.808;11.292;2023-03-23T14:45:05;18.60;62.70
24402;DHT22;12539;48.808;11.292;2023-03-23T14:47:34;18.50;63.30
24402;DHT22;12539;48.808;11.292;2023-03-23T14:50:02;18.50;63.70
24402;DHT22;12539;48.808;11.292;2023-03-23T14:52:33;18.40;63.80
24402;DHT22;12539;48.808;11.292;2023-03-23T14:55:13;18.30;64.90
24402;DHT22;12539;48.808;11.292;2023-03-23T14:57:43;18.20;65.10
24402;DHT22;12539;48.808;11.292;2023-03-23T15:00:16;18.20;65.70
24402;DHT22;12539;48.808;11.292;2023-03-23T15:02:44;18.10;65.90
24402;DHT22;12539;48.808;11.292;2023-03-23T15:07:36;18.10;66.50
24402;DHT22;12539;48.808;11.292;2023-03-23T15:10:06;18.20;66.80
24402;DHT22;12539;48.808;11.292;2023-03-23T15:12:31;18.20;67.10
24402;DHT22;12539;48.808;11.292;2023-03-23T15:14:58;18.30;67.10
24402;DHT22;12539;48.808;11.292;2023-03-23T15:17:29;18.30;68.60
24402;DHT22;12539;48.808;11.292;2023-03-23T15:19:56;18.40;68.80
24402;DHT22;12539;48.808;11.292;2023-03-23T15:24:52;18.50;69.90
24402;DHT22;12539;48.808;11.292;2023-03-23T15:27:24;18.60;69.10
24402;DHT22;12539;48.808;11.292;2023-03-23T15:29:54;18.60;69.50
24402;DHT22;12539;48.808;11.292;2023-03-23T15:32:30;18.60;70.40
24402;DHT22;12539;48.808;11.292;2023-03-23T15:34:57;18.60;70.20
24402;DHT22;12539;48.808;11.292;2023-03-23T15:37:28;18.60;70.00
24402;DHT22;12539;48.808;11.292;2023-03-23T15:39:55;18.60;70.90
24402;DHT22;12539;48.808;11.292;2023-03-23T15:44:54;18.50;69.40
24402;DHT22;12539;48.808;11.292;2023-03-23T15:47:20;18.40;70.30
24402;DHT22;12539;48.808;11.292;2023-03-23T15:49:47;18.40;70.00
24402;DHT22;12539;48.808;11.292;2023-03-23T15:52:23;18.30;70.60
24402;DHT22;12539;48.808;11.292;2023-03-23T15:54:48;18.20;70.70
24402;DHT22;12539;48.808;11.292;2023-03-23T15:57:14;18.10;70.70
24402;DHT22;12539;48.808;11.292;2023-03-23T15:59:40;18.00;71.10
24402;DHT22;12539;48.808;11.292;2023-03-23T16:02:05;17.90;71.80
24402;DHT22;12539;48.808;11.292;2023-03-23T16:04:31;17.90;70.50
24402;DHT22;12539;48.808;11.292;2023-03-23T16:06:57;17.80;71.20
24402;DHT22;12539;48.808;11.292;2023-03-23T16:09:24;17.80;70.00
24402;DHT22;12539;48.808;11.292;2023-03-23T16:11:50;17.70;70.60
24402;DHT22;12539;48.808;11.292;2023-03-23T16:14:16;17.70;71.10
24402;DHT22;12539;48.808;11.292;2023-03-23T16:16:43;17.70;71.90
24402;DHT22;12539;48.808;11.292;2023-03-23T16:19:13;17.70;71.90
24402;DHT22;12539;48.808;11.292;2023-03-23T16:21:39;17.60;70.70
24402;DHT22;12539;48.808;11.292;2023-03-23T16:24:05;17.50;71.00
24402;DHT22;12539;48.808;11.292;2023-03-23T16:26:31;17.50;71.20
24402;DHT22;12539;48.808;11.292;2023-03-23T16:28:57;17.40;70.80
24402;DHT22;12539;48.808;11.292;2023-03-23T16:31:23;17.40;70.80
24402;DHT22;12539;48.808;11.292;2023-03-23T16:33:48;17.30;71.40
24402;DHT22;12539;48.808;11.292;2023-03-23T16:36:14;17.20;71.40
24402;DHT22;12539;48.808;11.292;2023-03-23T16:38:40;17.10;71.40
24402;DHT22;12539;48.808;11.292;2023-03-23T16:41:06;17.10;72.10
24402;DHT22;12539;48.808;11.292;2023-03-23T16:43:32;17.00;72.80
24402;DHT22;12539;48.808;11.292;2023-03-23T16:45:57;17.00;73.00
24402;DHT22;12539;48.808;11.292;2023-03-23T16:48:23;16.90;73.70
24402;DHT22;12539;48.808;11.292;2023-03-23T16:50:51;16.80;73.90
24402;DHT22;12539;48.808;11.292;2023-03-23T16:53:17;16.80;74.40
24402;DHT22;12539;48.808;11.292;2023-03-23T16:55:43;16.80;74.60
24402;DHT22;12539;48.808;11.292;2023-03-23T16:58:12;16.70;75.00
24402;DHT22;12539;48.808;11.292;2023-03-23T17:00:38;16.60;75.10
24402;DHT22;12539;48.808;11.292;2023-03-23T17:03:05;16.60;75.60
24402;DHT22;12539;48.808;11.292;2023-03-23T17:05:30;16.60;76.10
24402;DHT22;12539;48.808;11.292;2023-03-23T17:07:56;16.50;76.40
24402;DHT22;12539;48.808;11.292;2023-03-23T17:10:22;16.40;76.60
24402;DHT22;12539;48.808;11.292;2023-03-23T17:12:48;16.40;77.10
24402;DHT22;12539;48.808;11.292;2023-03-23T17:15:13;16.30;77.50
24402;DHT22;12539;48.808;11.292;2023-03-23T17:17:39;16.20;77.70
24402;DHT22;12539;48.808;11.292;2023-03-23T17:20:05;16.10;77.80
24402;DHT22;12539;48.808;11.292;2023-03-23T17:22:31;16.10;78.30
24402;DHT22;12539;48.808;11.292;2023-03-23T17:24:56;16.10;78.70